createdAt,value
2022-08-01T00:00:09.090Z,77209.34
2022-08-01T00:02:39.141Z,77209.34
2022-08-01T00:05:09.577Z,77217.69
2022-08-01T00:07:36.383Z,77215.63
2022-08-01T00:10:05.326Z,77215.63
2022-08-01T00:12:31.939Z,77215.63
2022-08-01T00:14:58.542Z,77211.44
2022-08-01T00:17:25.105Z,77219.78
2022-08-01T00:19:51.636Z,77217.69
2022-08-01T00:22:18.366Z,77213.53
2022-08-01T00:24:44.993Z,77223.97
2022-08-01T00:27:11.617Z,77221.88
2022-08-01T00:30:10.212Z,77221.88
2022-08-01T00:32:24.959Z,77228.16
2022-08-01T00:34:51.600Z,77226.06
2022-08-01T00:37:18.398Z,77228.16
2022-08-01T00:39:44.938Z,77226.06
2022-08-01T00:42:12.668Z,77223.97
2022-08-01T00:44:39.702Z,77232.34
2022-08-01T00:47:06.965Z,77230.25
2022-08-01T00:49:33.809Z,77230.25
2022-08-01T00:52:00.669Z,77228.16
2022-08-01T00:54:28.069Z,77226.06
2022-08-01T00:56:55.581Z,77232.34
2022-08-01T00:59:23.353Z,77234.41
2022-08-01T01:01:52.501Z,77234.41
2022-08-01T01:04:20.388Z,77236.50
2022-08-01T01:07:28.432Z,77234.41
2022-08-01T01:10:05.737Z,77240.69
2022-08-01T01:12:57.068Z,77244.88
2022-08-01T01:15:32.236Z,77244.88
2022-08-01T01:18:03.311Z,77246.97
2022-08-01T01:20:33.253Z,77251.13
2022-08-01T01:23:07.899Z,77246.97
2022-08-01T01:26:05.650Z,77251.13
2022-08-01T01:28:36.480Z,77251.13
2022-08-01T01:31:04.655Z,77259.50
2022-08-01T01:33:32.792Z,77261.59
2022-08-01T01:36:02.562Z,77259.50
2022-08-01T01:38:32.941Z,77265.78
2022-08-01T01:41:00.011Z,77263.69
2022-08-01T01:43:28.994Z,77269.94
2022-08-01T01:46:00.145Z,77267.88
2022-08-01T01:48:27.725Z,77274.13
2022-08-01T01:50:54.609Z,77276.22
2022-08-01T01:53:22.783Z,77274.13
2022-08-01T01:55:50.349Z,77274.13
2022-08-01T01:58:17.496Z,77274.13
2022-08-01T02:00:45.825Z,77276.22
2022-08-01T02:03:13.758Z,77280.41
2022-08-01T02:05:40.906Z,77278.31
2022-08-01T02:08:09.137Z,77282.50
2022-08-01T02:10:35.529Z,77286.66
2022-08-01T02:13:05.428Z,77288.75
2022-08-01T02:15:34.182Z,77286.66
2022-08-01T02:18:02.184Z,77288.75
2022-08-01T02:20:31.265Z,77292.94
2022-08-01T02:23:02.924Z,77290.84
2022-08-01T02:26:09.389Z,77295.03
2022-08-01T02:28:42.482Z,77297.13
2022-08-01T02:31:12.296Z,77305.47
2022-08-01T02:33:46.079Z,77305.47
2022-08-01T02:36:30.218Z,77305.47
2022-08-01T02:39:12.798Z,77305.47
2022-08-01T02:41:43.170Z,77303.41
2022-08-01T02:44:11.899Z,77311.75
2022-08-01T02:46:42.134Z,77315.94
2022-08-01T02:49:10.397Z,77318.03
2022-08-01T02:51:37.691Z,77318.03
2022-08-01T02:54:06.398Z,77320.13
2022-08-01T02:56:36.076Z,77320.13
2022-08-01T02:59:08.900Z,77322.19
2022-08-01T03:01:36.547Z,77324.28
2022-08-01T03:04:05.948Z,77324.28
2022-08-01T03:06:33.526Z,77322.19
2022-08-01T03:09:01.651Z,77320.13
2022-08-01T03:11:29.395Z,77320.13
2022-08-01T03:13:58.159Z,77328.47
2022-08-01T03:16:25.419Z,77322.19
2022-08-01T03:18:54.582Z,77320.13
2022-08-01T03:21:23.415Z,77322.19
2022-08-01T03:23:55.035Z,77328.47
2022-08-01T03:26:22.011Z,77326.38
2022-08-01T03:28:49.647Z,77324.28
2022-08-01T03:31:16.673Z,77328.47
2022-08-01T03:33:43.154Z,77330.56
2022-08-01T03:36:10.793Z,77330.56
2022-08-01T03:38:39.181Z,77334.75
2022-08-01T03:41:18.570Z,77334.75
2022-08-01T03:43:53.347Z,77334.75
2022-08-01T03:46:34.394Z,77336.84
2022-08-01T03:49:05.373Z,77338.94
2022-08-01T03:51:32.759Z,77332.66
2022-08-01T03:54:00.801Z,77338.94
2022-08-01T03:56:27.772Z,77338.94
2022-08-01T03:58:54.674Z,77336.84
2022-08-01T04:01:21.519Z,77343.09
2022-08-01T04:03:48.169Z,77343.09
2022-08-01T04:06:15.153Z,77345.19
2022-08-01T04:08:42.282Z,77351.47
2022-08-01T04:11:09.778Z,77347.28
2022-08-01T04:13:36.701Z,77355.66
2022-08-01T04:16:04.394Z,77351.47
2022-08-01T04:18:30.870Z,77351.47
2022-08-01T04:20:57.346Z,77355.66
2022-08-01T04:23:25.937Z,77361.91
2022-08-01T04:25:53.581Z,77361.91
2022-08-01T04:28:21.211Z,77359.81
2022-08-01T04:30:49.912Z,77364.00
2022-08-01T04:33:18.345Z,77364.00
2022-08-01T04:36:03.929Z,77370.28
2022-08-01T04:38:32.916Z,77370.28
2022-08-01T04:41:08.523Z,77368.19
2022-08-01T04:43:37.065Z,77378.63
2022-08-01T04:46:04.884Z,77380.72
2022-08-01T04:48:33.117Z,77382.81
2022-08-01T04:51:00.064Z,77389.09
2022-08-01T04:53:27.651Z,77389.09
2022-08-01T04:55:54.470Z,77393.25
2022-08-01T04:58:20.943Z,77389.09
2022-08-01T05:00:47.832Z,77393.25
2022-08-01T05:03:14.651Z,77395.34
2022-08-01T05:05:41.325Z,77389.09
2022-08-01T05:08:07.966Z,77393.25
2022-08-01T05:10:35.137Z,77391.19
2022-08-01T05:13:01.677Z,77389.09
2022-08-01T05:15:28.223Z,77393.25
2022-08-01T05:17:55.342Z,77389.09
2022-08-01T05:20:22.265Z,77389.09
2022-08-01T05:22:48.802Z,77389.09
2022-08-01T05:25:20.386Z,77380.72
2022-08-01T05:28:00.916Z,77376.53
2022-08-01T05:30:27.420Z,77378.63
2022-08-01T05:32:53.933Z,77368.19
2022-08-01T05:35:20.452Z,77372.38
2022-08-01T05:37:46.960Z,77372.38
2022-08-01T05:40:13.442Z,77368.19
2022-08-01T05:42:39.962Z,77366.09
2022-08-01T05:45:06.761Z,77370.28
2022-08-01T05:47:33.307Z,77370.28
2022-08-01T05:49:59.784Z,77368.19
2022-08-01T05:52:26.332Z,77366.09
2022-08-01T05:54:52.931Z,77361.91
2022-08-01T05:57:20.548Z,77368.19
2022-08-01T05:59:47.019Z,77370.28
2022-08-01T06:02:13.611Z,77370.28
2022-08-01T06:04:40.267Z,77368.19
2022-08-01T06:07:06.822Z,77370.28
2022-08-01T06:09:33.466Z,77376.53
2022-08-01T06:12:00.004Z,77374.47
2022-08-01T06:14:26.524Z,77378.63
2022-08-01T06:16:53.014Z,77370.28
2022-08-01T06:19:19.561Z,77374.47
2022-08-01T06:21:46.096Z,77370.28
2022-08-01T06:24:12.613Z,77380.72
2022-08-01T06:26:39.202Z,77374.47
2022-08-01T06:29:05.710Z,77382.81
2022-08-01T06:31:33.931Z,77382.81
2022-08-01T06:34:00.650Z,77393.25
2022-08-01T06:36:27.186Z,77391.19
2022-08-01T06:38:53.724Z,77393.25
2022-08-01T06:41:20.388Z,77397.44
2022-08-01T06:43:46.883Z,77399.53
2022-08-01T06:46:13.398Z,77399.53
2022-08-01T06:48:40.369Z,77412.06
2022-08-01T06:51:10.576Z,77410.00
2022-08-01T06:53:37.743Z,77401.63
2022-08-01T06:56:05.114Z,77407.91
2022-08-01T06:58:31.995Z,77401.63
2022-08-01T07:00:58.772Z,77414.16
2022-08-01T07:03:26.466Z,77420.44
2022-08-01T07:05:55.427Z,77418.34
2022-08-01T07:08:22.303Z,77414.16
2022-08-01T07:10:48.868Z,77414.16
2022-08-01T07:13:18.919Z,77407.91
2022-08-01T07:15:45.405Z,77418.34
2022-08-01T07:18:11.889Z,77407.91
2022-08-01T07:20:51.150Z,77410.00
2022-08-01T07:23:20.029Z,77399.53
2022-08-01T07:25:52.409Z,77399.53
2022-08-01T07:28:19.842Z,77389.09
2022-08-01T07:30:46.616Z,77384.91
2022-08-01T07:33:13.527Z,77389.09
2022-08-01T07:35:40.681Z,77380.72
2022-08-01T07:38:12.590Z,77374.47
2022-08-01T07:40:39.398Z,77378.63
2022-08-01T07:43:05.937Z,77384.91
2022-08-01T07:45:32.631Z,77382.81
2022-08-01T07:48:08.302Z,77384.91
2022-08-01T07:50:35.681Z,77378.63
2022-08-01T07:53:03.481Z,77382.81
2022-08-01T07:55:30.066Z,77380.72
2022-08-01T07:57:56.651Z,77382.81
2022-08-01T08:00:23.450Z,77374.47
2022-08-01T08:02:50.003Z,77378.63
2022-08-01T08:05:16.551Z,77378.63
2022-08-01T08:08:05.821Z,77378.63
2022-08-01T08:10:32.437Z,77384.91
2022-08-01T08:12:58.938Z,77374.47
2022-08-01T08:15:25.601Z,77387.00
2022-08-01T08:17:55.306Z,77389.09
2022-08-01T08:20:27.986Z,77382.81
2022-08-01T08:22:55.140Z,77370.28
2022-08-01T08:25:22.977Z,77361.91
2022-08-01T08:27:53.751Z,77368.19
2022-08-01T08:30:20.399Z,77372.38
2022-08-01T08:32:48.887Z,77376.53
2022-08-01T08:35:22.960Z,77382.81
2022-08-01T08:37:50.154Z,77372.38
2022-08-01T08:40:20.560Z,77397.44
2022-08-01T08:42:47.494Z,77395.34
2022-08-01T08:45:14.011Z,77405.81
2022-08-01T08:47:41.286Z,77407.91
2022-08-01T08:50:08.309Z,77416.25
2022-08-01T08:52:37.081Z,77424.63
2022-08-01T08:55:03.760Z,77426.72
2022-08-01T08:57:30.992Z,77430.88
2022-08-01T08:59:58.013Z,77426.72
2022-08-01T09:02:24.605Z,77422.53
2022-08-01T09:04:51.598Z,77426.72
2022-08-01T09:07:18.168Z,77420.44
2022-08-01T09:09:44.823Z,77420.44
2022-08-01T09:12:11.804Z,77418.34
2022-08-01T09:14:46.237Z,77397.44
2022-08-01T09:17:13.656Z,77401.63
2022-08-01T09:19:45.856Z,77403.72
2022-08-01T09:22:14.528Z,77399.53
2022-08-01T09:24:42.455Z,77399.53
2022-08-01T09:27:25.130Z,77397.44
2022-08-01T09:30:01.032Z,77410.00
2022-08-01T09:32:34.224Z,77397.44
2022-08-01T09:35:30.732Z,77399.53
2022-08-01T09:38:24.008Z,77393.25
2022-08-01T09:40:59.709Z,77376.53
2022-08-01T09:43:31.252Z,77345.19
2022-08-01T09:45:58.823Z,77320.13
2022-08-01T09:48:28.481Z,77309.66
2022-08-01T09:51:04.748Z,77297.13
2022-08-01T09:53:52.267Z,77305.47
2022-08-01T09:56:21.582Z,77313.84
2022-08-01T09:58:59.362Z,77315.94
2022-08-01T10:01:36.626Z,77315.94
2022-08-01T10:04:11.473Z,77313.84
2022-08-01T10:06:43.993Z,77303.41
2022-08-01T10:09:12.043Z,77309.66
2022-08-01T10:11:42.097Z,77309.66
2022-08-01T10:14:08.834Z,77299.22
2022-08-01T10:16:39.655Z,77276.22
2022-08-01T10:19:14.725Z,77267.88
2022-08-01T10:21:57.436Z,77253.22
2022-08-01T10:24:27.419Z,77255.31
2022-08-01T10:27:05.450Z,77221.88
2022-08-01T10:29:59.003Z,77261.59
2022-08-01T10:32:34.103Z,77263.69
2022-08-01T10:35:06.724Z,77265.78
2022-08-01T10:37:34.972Z,77272.03
2022-08-01T10:40:28.699Z,77272.03
2022-08-01T10:42:48.694Z,77263.69
2022-08-01T10:45:16.675Z,77263.69
2022-08-01T10:47:56.407Z,77265.78
2022-08-01T10:50:26.390Z,77253.22
2022-08-01T10:53:24.157Z,77257.41
2022-08-01T10:55:59.465Z,77267.88
2022-08-01T10:58:42.459Z,77280.41
2022-08-01T11:01:30.490Z,77280.41
2022-08-01T11:04:01.320Z,77286.66
2022-08-01T11:06:33.983Z,77274.13
2022-08-01T11:09:03.977Z,77267.88
2022-08-01T11:11:37.448Z,77272.03
2022-08-01T11:14:09.273Z,77276.22
2022-08-01T11:16:37.722Z,77272.03
2022-08-01T11:19:06.052Z,77263.69
2022-08-01T11:21:57.446Z,77259.50
2022-08-01T11:24:50.776Z,77236.50
2022-08-01T11:27:20.566Z,77246.97
2022-08-01T11:30:09.030Z,77240.69
2022-08-01T11:33:10.449Z,77257.41
2022-08-01T11:35:38.755Z,77255.31
2022-08-01T11:38:25.500Z,77272.03
2022-08-01T11:41:10.382Z,77267.88
2022-08-01T11:43:36.913Z,77263.69
2022-08-01T11:46:03.984Z,77255.31
2022-08-01T11:48:30.782Z,77238.59
2022-08-01T11:50:58.016Z,77249.06
2022-08-01T11:53:28.890Z,77259.50
2022-08-01T11:55:56.388Z,77242.78
2022-08-01T11:58:29.294Z,77259.50
2022-08-01T12:00:59.030Z,77261.59
2022-08-01T12:03:34.401Z,77263.69
2022-08-01T12:06:01.592Z,77255.31
2022-08-01T12:08:37.325Z,77249.06
2022-08-01T12:11:07.266Z,77226.06
2022-08-01T12:13:44.392Z,77198.88
2022-08-01T12:16:12.081Z,77196.81
2022-08-01T12:18:42.728Z,77159.19
2022-08-01T12:21:09.502Z,77163.34
2022-08-01T12:23:36.099Z,77178.00
2022-08-01T12:26:04.965Z,77226.06
2022-08-01T12:28:31.467Z,77240.69
2022-08-01T12:30:57.973Z,77246.97
2022-08-01T12:33:24.577Z,77244.88
2022-08-01T12:35:51.135Z,77265.78
2022-08-01T12:38:19.861Z,77255.31
2022-08-01T12:40:49.773Z,77286.66
2022-08-01T12:43:28.328Z,77282.50
2022-08-01T12:45:57.947Z,77292.94
2022-08-01T12:48:25.818Z,77288.75
2022-08-01T12:50:57.713Z,77282.50
2022-08-01T12:53:24.215Z,77292.94
2022-08-01T12:55:58.478Z,77295.03
2022-08-01T12:58:32.787Z,77305.47
2022-08-01T13:01:11.155Z,77313.84
2022-08-01T13:03:38.585Z,77313.84
2022-08-01T13:06:17.230Z,77318.03
2022-08-01T13:08:44.896Z,77313.84
2022-08-01T13:11:17.337Z,77309.66
2022-08-01T13:13:48.303Z,77320.13
2022-08-01T13:16:25.962Z,77307.56
2022-08-01T13:19:01.563Z,77320.13
2022-08-01T13:21:34.631Z,77330.56
2022-08-01T13:24:32.425Z,77324.28
2022-08-01T13:27:01.619Z,77326.38
2022-08-01T13:29:31.275Z,77322.19
2022-08-01T13:31:58.053Z,77309.66
2022-08-01T13:34:35.005Z,77295.03
2022-08-01T13:37:05.208Z,77307.56
2022-08-01T13:39:45.475Z,77303.41
2022-08-01T13:42:18.409Z,77305.47
2022-08-01T13:44:48.759Z,77307.56
2022-08-01T13:47:16.168Z,77307.56
2022-08-01T13:49:43.964Z,77297.13
2022-08-01T13:52:11.069Z,77280.41
2022-08-01T13:54:37.696Z,77286.66
2022-08-01T13:57:04.382Z,77299.22
2022-08-01T13:59:30.861Z,77284.59
2022-08-01T14:01:57.499Z,77284.59
2022-08-01T14:04:24.225Z,77269.94
2022-08-01T14:06:50.760Z,77267.88
2022-08-01T14:09:24.080Z,77267.88
2022-08-01T14:11:51.264Z,77280.41
2022-08-01T14:14:17.824Z,77288.75
2022-08-01T14:16:45.905Z,77292.94
2022-08-01T14:19:12.589Z,77288.75
2022-08-01T14:21:39.296Z,77286.66
2022-08-01T14:24:07.609Z,77297.13
2022-08-01T14:26:34.335Z,77295.03
2022-08-01T14:29:02.871Z,77295.03
2022-08-01T14:31:34.046Z,77292.94
2022-08-01T14:34:01.132Z,77297.13
2022-08-01T14:36:30.761Z,77297.13
2022-08-01T14:39:00.497Z,77299.22
2022-08-01T14:41:28.284Z,77292.94
2022-08-01T14:43:54.833Z,77292.94
2022-08-01T14:46:21.405Z,77265.78
2022-08-01T14:48:47.890Z,77269.94
2022-08-01T14:51:14.442Z,77276.22
2022-08-01T14:53:44.877Z,77274.13
2022-08-01T14:56:13.641Z,77253.22
2022-08-01T14:58:40.101Z,77246.97
2022-08-01T15:01:06.949Z,77253.22
2022-08-01T15:03:34.034Z,77249.06
2022-08-01T15:06:00.712Z,77253.22
2022-08-01T15:08:27.428Z,77261.59
2022-08-01T15:10:54.032Z,77272.03
2022-08-01T15:13:20.627Z,77265.78
2022-08-01T15:15:47.844Z,77276.22
2022-08-01T15:18:14.374Z,77274.13
2022-08-01T15:20:40.883Z,77267.88
2022-08-01T15:23:07.410Z,77265.78
2022-08-01T15:25:41.374Z,77265.78
2022-08-01T15:28:10.406Z,77274.13
2022-08-01T15:30:37.085Z,77272.03
2022-08-01T15:33:03.685Z,77261.59
2022-08-01T15:35:30.353Z,77274.13
2022-08-01T15:37:56.924Z,77274.13
2022-08-01T15:40:23.470Z,77274.13
2022-08-01T15:42:49.966Z,77274.13
2022-08-01T15:45:44.607Z,77265.78
2022-08-01T15:48:06.091Z,77274.13
2022-08-01T15:50:32.643Z,77263.69
2022-08-01T15:52:59.285Z,77267.88
2022-08-01T15:55:25.752Z,77269.94
2022-08-01T15:57:52.342Z,77255.31
2022-08-01T16:00:18.839Z,77249.06
2022-08-01T16:02:45.461Z,77246.97
2022-08-01T16:05:12.031Z,77244.88
2022-08-01T16:07:59.435Z,77246.97
2022-08-01T16:10:25.009Z,77246.97
2022-08-01T16:12:51.586Z,77244.88
2022-08-01T16:15:18.059Z,77234.41
2022-08-01T16:17:44.874Z,77238.59
2022-08-01T16:20:11.657Z,77238.59
2022-08-01T16:22:38.168Z,77234.41
2022-08-01T16:25:05.467Z,77238.59
2022-08-01T16:27:32.074Z,77230.25
2022-08-01T16:29:58.547Z,77240.69
2022-08-01T16:32:28.605Z,77251.13
2022-08-01T16:35:10.065Z,77261.59
2022-08-01T16:37:36.848Z,77261.59
2022-08-01T16:40:04.009Z,77257.41
2022-08-01T16:42:30.499Z,77234.41
2022-08-01T16:44:57.315Z,77228.16
2022-08-01T16:47:23.803Z,77186.34
2022-08-01T16:49:50.304Z,77175.91
2022-08-01T16:52:16.957Z,77182.16
2022-08-01T16:54:43.493Z,77184.25
2022-08-01T16:57:10.670Z,77188.44
2022-08-01T16:59:41.673Z,77198.88
2022-08-01T17:02:10.002Z,77230.25
2022-08-01T17:04:36.538Z,77234.41
2022-08-01T17:07:03.204Z,77228.16
2022-08-01T17:09:29.958Z,77244.88
2022-08-01T17:11:56.500Z,77246.97
2022-08-01T17:14:23.639Z,77269.94
2022-08-01T17:16:50.136Z,77269.94
2022-08-01T17:19:16.617Z,77274.13
2022-08-01T17:21:43.120Z,77280.41
2022-08-01T17:24:09.929Z,77284.59
2022-08-01T17:26:38.212Z,77290.84
2022-08-01T17:29:04.707Z,77292.94
2022-08-01T17:31:31.240Z,77299.22
2022-08-01T17:33:57.770Z,77297.13
2022-08-01T17:36:24.317Z,77299.22
2022-08-01T17:38:50.873Z,77295.03
2022-08-01T17:41:17.829Z,77301.31
2022-08-01T17:43:44.749Z,77309.66
2022-08-01T17:46:13.704Z,77305.47
2022-08-01T17:48:40.428Z,77309.66
2022-08-01T17:51:07.037Z,77303.41
2022-08-01T17:53:34.005Z,77311.75
2022-08-01T17:56:02.619Z,77309.66
2022-08-01T17:58:32.992Z,77307.56
2022-08-01T18:01:16.979Z,77326.38
2022-08-01T18:03:44.061Z,77322.19
2022-08-01T18:06:17.332Z,77326.38
2022-08-01T18:08:47.102Z,77336.84
2022-08-01T18:11:18.216Z,77338.94
2022-08-01T18:13:45.075Z,77347.28
2022-08-01T18:16:13.312Z,77353.56
2022-08-01T18:18:41.713Z,77355.66
2022-08-01T18:21:08.129Z,77368.19
2022-08-01T18:23:35.332Z,77374.47
2022-08-01T18:26:02.695Z,77382.81
2022-08-01T18:28:34.118Z,77391.19
2022-08-01T18:31:02.022Z,77397.44
2022-08-01T18:33:28.667Z,77401.63
2022-08-01T18:35:57.697Z,77407.91
2022-08-01T18:38:32.260Z,77420.44
2022-08-01T18:41:00.329Z,77424.63
2022-08-01T18:43:27.451Z,77435.06
2022-08-01T18:45:54.194Z,77439.25
2022-08-01T18:48:20.868Z,77453.88
2022-08-01T18:50:47.673Z,77458.06
2022-08-01T18:53:14.312Z,77466.41
2022-08-01T18:55:40.895Z,77470.59
2022-08-01T18:58:07.562Z,77491.50
2022-08-01T19:00:34.698Z,77491.50
2022-08-01T19:03:01.388Z,77501.97
2022-08-01T19:05:27.915Z,77506.13
2022-08-01T19:08:06.242Z,77512.41
2022-08-01T19:10:37.792Z,77520.75
2022-08-01T19:13:04.632Z,77522.84
2022-08-01T19:15:31.380Z,77520.75
2022-08-01T19:17:58.049Z,77533.31
2022-08-01T19:20:24.755Z,77535.41
2022-08-01T19:22:51.581Z,77541.66
2022-08-01T19:25:18.232Z,77537.50
2022-08-01T19:27:47.246Z,77543.75
2022-08-01T19:30:14.525Z,77547.94
2022-08-01T19:32:43.690Z,77552.13
2022-08-01T19:35:12.567Z,77552.13
2022-08-01T19:37:44.295Z,77554.22
2022-08-01T19:40:11.375Z,77554.22
2022-08-01T19:42:55.096Z,77556.31
2022-08-01T19:45:21.812Z,77558.38
2022-08-01T19:47:51.575Z,77554.22
2022-08-01T19:50:23.062Z,77560.47
2022-08-01T19:52:50.874Z,77564.66
2022-08-01T19:55:17.635Z,77568.84
2022-08-01T19:57:45.640Z,77570.94
2022-08-01T20:00:27.877Z,77575.13
2022-08-01T20:02:56.591Z,77577.19
2022-08-01T20:05:26.172Z,77585.56
2022-08-01T20:07:52.872Z,77591.84
2022-08-01T20:10:23.686Z,77589.75
2022-08-01T20:12:50.418Z,77587.66
2022-08-01T20:15:17.186Z,77593.94
2022-08-01T20:17:45.613Z,77591.84
2022-08-01T20:20:12.417Z,77589.75
2022-08-01T20:22:41.372Z,77591.84
2022-08-01T20:25:09.203Z,77593.94
2022-08-01T20:27:35.925Z,77593.94
2022-08-01T20:30:02.598Z,77596.00
2022-08-01T20:32:34.509Z,77596.00
2022-08-01T20:35:01.845Z,77602.28
2022-08-01T20:38:06.380Z,77602.28
2022-08-01T20:40:15.812Z,77596.00
2022-08-01T20:42:45.485Z,77598.09
2022-08-01T20:45:18.045Z,77610.66
2022-08-01T20:47:46.848Z,77621.09
2022-08-01T20:50:54.042Z,77623.19
2022-08-01T20:53:18.875Z,77633.63
2022-08-01T20:55:49.357Z,77644.09
2022-08-01T20:59:08.799Z,77656.63
2022-08-01T21:01:41.934Z,77660.81
2022-08-01T21:04:08.617Z,77679.63
2022-08-01T21:06:46.251Z,77685.91
2022-08-01T21:09:14.668Z,77692.16
2022-08-01T21:11:49.112Z,77696.34
2022-08-01T21:14:20.376Z,77698.44
2022-08-01T21:16:52.963Z,77713.06
2022-08-01T21:19:26.791Z,77713.06
2022-08-01T21:22:15.714Z,77719.34
2022-08-01T21:25:07.710Z,77731.88
2022-08-01T21:27:35.832Z,77731.88
2022-08-01T21:30:06.204Z,77738.16
2022-08-01T21:32:34.233Z,77744.41
2022-08-01T21:35:01.572Z,77752.78
2022-08-01T21:37:30.129Z,77756.97
2022-08-01T21:39:58.064Z,77754.88
2022-08-01T21:42:26.725Z,77759.06
2022-08-01T21:44:55.580Z,77769.50
2022-08-01T21:47:22.958Z,77782.06
2022-08-01T21:49:49.571Z,77773.69
2022-08-01T21:52:21.505Z,77767.41
2022-08-01T21:55:02.085Z,77769.50
2022-08-01T21:57:41.759Z,77779.97
2022-08-01T22:00:20.918Z,77775.78
2022-08-01T22:03:13.834Z,77777.88
2022-08-01T22:05:50.870Z,77786.22
2022-08-01T22:08:32.465Z,77792.50
2022-08-01T22:11:02.889Z,77796.69
2022-08-01T22:13:29.665Z,77802.94
2022-08-01T22:15:57.131Z,77805.03
2022-08-01T22:18:26.078Z,77809.22
2022-08-01T22:20:53.140Z,77817.59
2022-08-01T22:23:21.941Z,77819.69
2022-08-01T22:25:52.049Z,77830.13
2022-08-01T22:28:19.215Z,77834.31
2022-08-01T22:30:45.864Z,77832.22
2022-08-01T22:33:16.420Z,77840.56
2022-08-01T22:35:49.209Z,77834.31
2022-08-01T22:38:23.187Z,77840.56
2022-08-01T22:40:52.886Z,77853.13
2022-08-01T22:43:30.901Z,77853.13
2022-08-01T22:46:17.890Z,77859.38
2022-08-01T22:49:09.268Z,77869.84
2022-08-01T22:51:54.671Z,77876.13
2022-08-01T22:54:27.176Z,77886.56
2022-08-01T22:56:56.159Z,77890.75
2022-08-01T22:59:49.634Z,77888.66
2022-08-01T23:02:17.305Z,77890.75
2022-08-01T23:04:47.520Z,77899.09
2022-08-01T23:07:19.653Z,77911.66
2022-08-01T23:09:54.150Z,77903.28
2022-08-01T23:12:24.336Z,77911.66
2022-08-01T23:14:53.701Z,77915.84
2022-08-01T23:17:27.247Z,77917.91
2022-08-01T23:20:02.831Z,77917.91
2022-08-01T23:22:31.734Z,77926.28
2022-08-01T23:25:04.978Z,77934.66
2022-08-01T23:27:57.881Z,77934.66
2022-08-01T23:30:24.747Z,77947.19
2022-08-01T23:32:51.404Z,77947.19
2022-08-01T23:35:18.138Z,77949.28
2022-08-01T23:37:44.773Z,77959.72
2022-08-01T23:40:11.970Z,77957.63
2022-08-01T23:42:38.475Z,77966.00
2022-08-01T23:45:05.457Z,77970.19
2022-08-01T23:47:31.937Z,77966.00
2022-08-01T23:49:58.457Z,77970.19
2022-08-01T23:52:24.994Z,77970.19
2022-08-01T23:54:57.526Z,77978.53
2022-08-01T23:57:26.285Z,77980.63
2022-08-01T23:59:54.128Z,77982.72
